Time;durP1;ratioP1;P1;durP2;ratioP2;P2;SDS_P1;SDS_P2;PMS_P1;PMS_P2;Temp;Humidity;BMP_temperature;BMP_pressure;BME280_temperature;BME280_humidity;BME280_pressure;Samples;Min_cycle;Max_cycle;Signal;HPM_P1;HPM_P2
2022/07/08 00:01:37;;;;;;;9.03;2.90;;;18.90;58.40;;;21.77;44.44;102606.94;5094216;28;20214;-65
2022/07/08 00:04:06;;;;;;;4.53;2.23;;;18.90;58.60;;;21.76;44.28;102607.13;5094523;28;20192;-65
2022/07/08 00:06:33;;;;;;;7.97;2.43;;;18.90;59.20;;;21.76;43.90;102615.19;5094396;28;20720;-65
2022/07/08 00:09:00;;;;;;;8.13;2.90;;;18.80;58.80;;;21.72;44.36;102612.09;5095464;28;20192;-64
2022/07/08 00:11:28;;;;;;;6.23;2.37;;;18.90;59.20;;;21.72;44.40;102619.31;5095491;28;20208;-65
2022/07/08 00:13:55;;;;;;;8.33;2.60;;;18.80;59.30;;;21.70;44.76;102610.63;5093639;28;20619;-66
2022/07/08 00:16:23;;;;;;;8.63;2.80;;;18.80;59.50;;;21.68;44.75;102618.06;5094241;28;20189;-64
2022/07/08 00:18:50;;;;;;;8.03;2.90;;;18.80;59.50;;;21.66;44.57;102618.25;5094083;28;20756;-65
2022/07/08 00:21:19;;;;;;;5.40;2.00;;;18.70;59.50;;;21.63;45.05;102617.84;5093371;28;20215;-66
2022/07/08 00:23:46;;;;;;;10.30;2.73;;;18.70;59.50;;;21.58;45.10;102618.44;5093225;28;20195;-65
2022/07/08 00:26:14;;;;;;;6.63;2.63;;;18.70;59.50;;;21.56;44.59;102615.94;5094186;28;20578;-66
2022/07/08 00:28:41;;;;;;;9.80;2.80;;;18.70;60.10;;;21.57;44.64;102616.78;5094294;28;20184;-65
2022/07/08 00:31:09;;;;;;;6.90;2.07;;;18.70;59.60;;;21.55;44.67;102614.31;5092846;28;20213;-65
2022/07/08 00:33:36;;;;;;;9.07;2.93;;;18.70;59.50;;;21.57;44.78;102614.94;5094393;28;20188;-64
2022/07/08 00:36:04;;;;;;;5.93;2.20;;;18.70;59.50;;;21.60;45.13;102611.03;5093592;28;20188;-64
2022/07/08 00:38:33;;;;;;;9.43;2.13;;;18.70;59.80;;;21.63;44.88;102615.16;5094072;28;20199;-65
2022/07/08 00:41:00;;;;;;;7.07;2.50;;;18.70;59.50;;;21.64;44.73;102622.16;5093867;28;20212;-64
2022/07/08 00:43:37;;;;;;;9.97;2.70;;;18.70;59.50;;;21.58;44.79;102618.44;5094927;28;20195;-64
2022/07/08 00:46:06;;;;;;;7.10;2.43;;;18.70;59.70;;;21.61;44.71;102619.91;5095374;28;20192;-65
2022/07/08 00:48:35;;;;;;;6.63;1.97;;;18.70;59.70;;;21.61;44.70;102619.91;5094244;28;20196;-65
2022/07/08 00:51:06;;;;;;;10.90;2.40;;;18.70;59.70;;;21.59;44.92;102615.53;5092964;28;20303;-65
2022/07/08 00:53:39;;;;;;;8.43;2.73;;;18.70;59.80;;;21.57;45.22;102617.59;5094432;28;20181;-65
2022/07/08 00:56:09;;;;;;;7.43;2.80;;;18.70;59.90;;;21.56;45.22;102623.97;5094475;28;20195;-65
2022/07/08 00:58:39;;;;;;;7.67;2.53;;;18.70;59.90;;;21.56;45.11;102623.97;5093881;28;20192;-64
2022/07/08 01:01:07;;;;;;;5.33;2.43;;;18.70;60.10;;;21.55;45.57;102630.38;5093097;28;20216;-64
2022/07/08 01:03:35;;;;;;;6.87;2.37;;;18.70;60.50;;;21.54;45.93;102618.00;5094501;28;20188;-64
2022/07/08 01:06:03;;;;;;;7.63;2.23;;;18.70;60.60;;;21.52;45.54;102620.06;5094233;28;20283;-65
2022/07/08 01:08:33;;;;;;;6.37;2.03;;;18.70;60.70;;;21.51;45.48;102629.13;5094293;28;20184;-64
2022/07/08 01:11:01;;;;;;;9.03;2.73;;;18.70;61.00;;;21.52;45.75;102619.22;5093869;28;20220;-65
2022/07/08 01:13:28;;;;;;;11.13;3.27;;;18.60;61.00;;;21.51;46.17;102622.94;5093668;28;20189;-65
2022/07/08 01:15:56;;;;;;;6.80;2.27;;;18.60;61.20;;;21.51;45.61;102626.44;5094681;28;20189;-65
2022/07/08 01:18:27;;;;;;;8.20;2.60;;;18.60;61.20;;;21.49;46.36;102625.81;5094255;28;20184;-64
2022/07/08 01:20:57;;;;;;;6.83;2.43;;;18.60;61.40;;;21.49;46.33;102623.13;5094525;28;20547;-65
2022/07/08 01:23:25;;;;;;;8.90;2.87;;;18.60;61.40;;;21.53;46.04;102627.09;5095224;28;20262;-65
2022/07/08 01:25:55;;;;;;;5.60;2.40;;;18.60;61.20;;;21.54;45.64;102620.69;5094554;28;20189;-64
2022/07/08 01:28:22;;;;;;;5.07;2.23;;;18.60;61.20;;;21.54;45.99;102620.69;5094749;28;20685;-65
2022/07/08 01:30:50;;;;;;;9.13;2.70;;;18.60;61.10;;;21.54;45.54;102618.00;5094491;28;20197;-65
2022/07/08 01:33:18;;;;;;;5.83;2.40;;;18.60;61.20;;;21.54;45.78;102615.31;5095664;28;20181;-64
2022/07/08 01:35:45;;;;;;;7.23;3.10;;;18.60;61.30;;;21.54;46.13;102609.97;5095963;28;20196;-65
2022/07/08 01:38:14;;;;;;;5.70;2.50;;;18.60;61.30;;;21.55;45.83;102614.31;5094791;28;20658;-65
2022/07/08 01:40:41;;;;;;;7.17;3.23;;;18.60;61.20;;;21.55;46.10;102616.16;5093345;28;20200;-65
2022/07/08 01:43:09;;;;;;;7.67;2.60;;;18.60;61.20;;;21.54;46.23;102614.50;5094398;28;20189;-65
2022/07/08 01:45:36;;;;;;;7.43;2.73;;;18.60;61.40;;;21.53;45.86;102616.38;5093191;28;20203;-66
2022/07/08 01:48:04;;;;;;;5.67;2.40;;;18.70;61.50;;;21.51;46.07;102621.06;5093086;28;20220;-64
2022/07/08 01:50:31;;;;;;;4.37;2.30;;;18.60;61.20;;;21.47;45.70;102619.81;5094762;28;20189;-64
2022/07/08 01:52:59;;;;;;;6.10;2.20;;;18.60;61.00;;;21.45;46.10;102618.38;5096051;28;20217;-64
2022/07/08 01:55:27;;;;;;;6.97;1.60;;;18.60;60.80;;;21.43;45.92;102620.44;5096438;28;20200;-64
2022/07/08 01:57:55;;;;;;;5.23;2.40;;;18.50;60.60;;;21.38;45.58;102613.00;5096426;28;20537;-64
2022/07/08 02:00:22;;;;;;;4.80;1.97;;;18.50;60.70;;;21.37;45.62;102616.69;5096225;28;20234;-64
2022/07/08 02:02:49;;;;;;;3.93;1.97;;;18.50;60.80;;;21.36;46.15;102615.06;5096333;28;20597;-64
2022/07/08 02:05:17;;;;;;;7.90;2.40;;;18.50;60.80;;;21.32;45.66;102611.09;5096637;28;20264;-64
2022/07/08 02:07:44;;;;;;;7.93;2.23;;;18.50;60.90;;;21.31;45.52;102613.97;5095811;28;20208;-65
2022/07/08 02:10:12;;;;;;;5.83;2.20;;;18.40;60.90;;;21.26;46.26;102614.59;5096770;28;20189;-65
2022/07/08 02:12:41;;;;;;;6.40;2.10;;;18.40;61.00;;;21.25;45.90;102615.59;5095598;28;20220;-65
2022/07/08 02:15:09;;;;;;;6.87;2.50;;;18.40;61.00;;;21.19;45.94;102613.72;5096087;28;20185;-65
2022/07/08 02:17:40;;;;;;;16.40;2.77;;;18.30;61.10;;;21.16;45.85;102608.75;5095689;28;20192;-64
2022/07/08 02:20:11;;;;;;;4.90;2.10;;;18.30;61.30;;;21.11;46.12;102611.19;5096350;28;20553;-64
2022/07/08 02:22:39;;;;;;;7.67;2.13;;;18.30;61.30;;;21.08;46.64;102621.50;5095726;28;20209;-61
2022/07/08 02:25:08;;;;;;;10.87;2.57;;;18.20;61.40;;;21.03;46.68;102623.91;5095900;28;20193;-62
2022/07/08 02:27:36;;;;;;;5.70;2.23;;;18.20;61.50;;;20.99;46.30;102623.44;5095121;28;20235;-64
2022/07/08 02:30:07;;;;;;;4.27;1.80;;;18.20;61.70;;;20.98;47.10;102624.50;5095362;28;20272;-64
2022/07/08 02:32:34;;;;;;;5.63;2.33;;;18.20;62.10;;;20.98;47.03;102629.84;5094187;28;20235;-64
2022/07/08 02:35:02;;;;;;;6.50;2.50;;;18.10;62.00;;;20.98;46.95;102627.16;5095825;28;20199;-64
2022/07/08 02:37:30;;;;;;;7.67;2.33;;;18.10;62.20;;;20.97;46.64;102628.19;5096016;28;20188;-64
2022/07/08 02:39:57;;;;;;;8.00;2.37;;;18.10;62.30;;;20.95;47.31;102624.88;5095185;28;20188;-63
2022/07/08 02:42:24;;;;;;;7.13;2.23;;;18.10;62.40;;;20.94;47.16;102623.25;5095030;28;20216;-64
2022/07/08 02:44:52;;;;;;;7.93;2.67;;;18.10;62.60;;;20.93;47.05;102625.09;5095540;28;20192;-64
2022/07/08 02:47:20;;;;;;;6.93;2.43;;;18.10;62.70;;;20.94;47.63;102633.94;5095464;28;20536;-64
2022/07/08 02:49:48;;;;;;;4.60;2.47;;;18.10;62.90;;;20.93;47.05;102640.31;5094960;28;20212;-64
2022/07/08 02:52:15;;;;;;;10.03;2.33;;;18.10;62.90;;;20.92;47.31;102644.84;5093939;28;20235;-65
2022/07/08 02:54:42;;;;;;;8.73;2.80;;;18.10;62.90;;;20.92;46.99;102646.69;5094859;28;20192;-64
2022/07/08 02:57:10;;;;;;;8.40;2.57;;;18.00;63.10;;;20.91;47.67;102647.72;5095269;28;20196;-64
2022/07/08 02:59:37;;;;;;;6.50;1.97;;;18.00;63.30;;;20.91;47.72;102653.91;5094574;28;20674;-65
2022/07/08 03:02:04;;;;;;;8.10;1.70;;;18.00;63.30;;;20.91;47.53;102647.72;5093264;28;20666;-64
2022/07/08 03:04:39;;;;;;;5.23;2.17;;;18.00;63.30;;;20.90;47.83;102643.38;5095330;28;20180;-64
2022/07/08 03:07:07;;;;;;;9.97;2.90;;;18.00;64.30;;;20.90;47.22;102652.25;5094636;28;20214;-64
2022/07/08 03:09:34;;;;;;;5.10;1.83;;;18.00;63.40;;;20.91;47.57;102658.44;5094591;28;20203;-62
2022/07/08 03:12:02;;;;;;;6.63;1.80;;;18.00;64.20;;;20.92;47.63;102660.06;5094469;28;20212;-64
2022/07/08 03:14:29;;;;;;;6.87;2.30;;;18.00;63.50;;;20.96;47.37;102647.97;5095515;28;20196;-64
2022/07/08 03:16:57;;;;;;;5.50;2.27;;;18.00;63.60;;;20.98;47.83;102648.59;5095284;28;20200;-63
2022/07/08 03:19:24;;;;;;;5.43;2.07;;;18.10;63.50;;;21.01;47.63;102653.56;5094377;28;20196;-65
2022/07/08 03:21:53;;;;;;;4.10;1.83;;;18.10;64.00;;;21.02;46.99;102663.22;5094439;28;20215;-65
2022/07/08 03:24:20;;;;;;;6.80;2.40;;;18.10;63.00;;;21.00;47.48;102662.59;5094876;28;20216;-65
2022/07/08 03:26:47;;;;;;;6.90;2.23;;;18.10;62.80;;;20.98;47.15;102656.63;5094683;28;20199;-65
2022/07/08 03:29:15;;;;;;;6.67;1.90;;;18.10;62.90;;;20.99;47.42;102670.84;5094102;28;20200;-64
2022/07/08 03:31:42;;;;;;;9.07;2.60;;;18.10;62.80;;;20.98;47.11;102659.31;5094385;28;20212;-64
2022/07/08 03:34:10;;;;;;;6.10;2.23;;;18.10;62.80;;;20.96;47.30;102666.72;5094396;28;20254;-65
2022/07/08 03:36:37;;;;;;;5.93;2.03;;;18.10;62.60;;;20.97;47.28;102668.34;5094543;28;20192;-65
2022/07/08 03:39:06;;;;;;;6.90;1.90;;;18.10;62.70;;;20.98;47.17;102667.34;5094325;28;20188;-65
2022/07/08 03:41:34;;;;;;;4.73;2.47;;;18.10;62.60;;;20.97;46.86;102668.34;5093811;28;20295;-64
2022/07/08 03:44:01;;;;;;;7.23;1.80;;;18.10;62.70;;;20.96;46.75;102669.38;5094536;28;20189;-64
2022/07/08 03:46:29;;;;;;;8.67;2.67;;;18.00;62.70;;;20.94;46.84;102668.75;5094457;28;20546;-64
2022/07/08 03:48:56;;;;;;;6.00;2.20;;;18.10;62.90;;;20.94;47.47;102668.75;5093626;28;20212;-64
2022/07/08 03:51:23;;;;;;;6.67;2.47;;;18.00;62.80;;;20.94;47.32;102674.91;5093515;28;20215;-64
2022/07/08 03:53:51;;;;;;;7.03;2.20;;;18.00;62.90;;;20.98;46.98;102666.50;5094311;28;20192;-64
2022/07/08 03:56:19;;;;;;;10.00;2.50;;;18.10;63.20;;;21.00;47.50;102672.50;5094329;28;20193;-64
2022/07/08 03:58:48;;;;;;;4.33;1.80;;;18.10;63.30;;;21.00;46.92;102683.19;5093496;28;20200;-64
2022/07/08 04:01:16;;;;;;;4.33;1.90;;;18.00;63.20;;;20.99;47.71;102687.72;5093638;28;20216;-64
2022/07/08 04:03:44;;;;;;;9.30;2.30;;;18.10;63.30;;;21.00;47.25;102686.72;5093818;28;20693;-64
2022/07/08 04:06:11;;;;;;;7.53;2.40;;;18.10;63.40;;;21.00;47.35;102688.56;5094078;28;20196;-64
2022/07/08 04:08:38;;;;;;;10.30;2.30;;;18.10;63.40;;;21.00;47.24;102688.56;5093936;28;20216;-64
2022/07/08 04:11:06;;;;;;;8.97;2.53;;;18.10;63.50;;;21.01;47.62;102690.22;5093902;28;20204;-64
2022/07/08 04:13:37;;;;;;;10.10;3.13;;;18.10;63.80;;;21.02;47.42;102691.84;5094028;28;20189;-64
2022/07/08 04:16:08;;;;;;;9.63;2.80;;;18.10;63.80;;;21.03;48.01;102688.16;5094165;28;20188;-64
2022/07/08 04:18:36;;;;;;;8.07;2.67;;;18.10;63.90;;;21.02;47.80;102698.06;5093840;28;20622;-64
2022/07/08 04:21:05;;;;;;;7.50;2.67;;;18.10;64.00;;;21.02;47.52;102691.84;5093753;28;20212;-64
2022/07/08 04:23:33;;;;;;;7.83;2.10;;;18.10;64.30;;;21.03;48.01;102694.38;5093375;28;20196;-65
2022/07/08 04:26:00;;;;;;;12.47;3.23;;;18.10;64.30;;;21.04;48.29;102695.19;5093098;28;20196;-64
2022/07/08 04:28:28;;;;;;;9.23;2.57;;;18.10;64.30;;;21.04;47.63;102698.69;5092950;28;20224;-64
2022/07/08 04:30:57;;;;;;;11.33;3.00;;;18.10;64.30;;;21.02;47.91;102703.41;5093248;28;20666;-64
2022/07/08 04:33:25;;;;;;;9.83;2.83;;;18.10;64.30;;;21.01;48.17;102700.94;5092794;28;20588;-64
2022/07/08 04:35:52;;;;;;;13.90;4.07;;;18.10;64.40;;;21.01;47.83;102707.13;5093673;28;20544;-65
2022/07/08 04:38:20;;;;;;;8.23;2.57;;;18.10;64.50;;;21.01;47.96;102707.13;5092524;28;20642;-65
2022/07/08 04:40:47;;;;;;;8.07;2.80;;;18.10;64.60;;;21.02;48.57;102698.06;5093389;28;20189;-64
2022/07/08 04:43:14;;;;;;;9.13;2.60;;;18.20;64.70;;;21.01;48.54;102707.13;5091798;28;20196;-65
2022/07/08 04:45:48;;;;;;;5.93;2.53;;;18.10;64.50;;;21.00;48.31;102716.16;5093507;28;20195;-65
2022/07/08 04:48:17;;;;;;;6.53;2.43;;;18.10;64.60;;;20.95;48.67;102721.28;5093302;28;20242;-65
2022/07/08 04:50:44;;;;;;;14.27;2.70;;;18.10;64.60;;;20.93;48.33;102723.31;5095886;28;20196;-65
2022/07/08 04:53:12;;;;;;;11.73;2.60;;;18.10;64.60;;;20.92;48.57;102733.19;5094662;28;20169;-64
2022/07/08 04:55:39;;;;;;;8.90;2.87;;;18.10;64.50;;;20.87;48.45;102726.78;5093194;28;20189;-64
2022/07/08 04:58:06;;;;;;;6.43;2.47;;;18.10;64.60;;;20.86;48.27;102719.75;5092936;28;20196;-65
2022/07/08 05:00:34;;;;;;;5.10;2.20;;;18.00;64.70;;;20.88;48.54;102723.06;5092891;28;20189;-65
2022/07/08 05:03:02;;;;;;;10.27;2.50;;;18.00;64.90;;;20.88;48.79;102723.91;5092818;28;20239;-65
2022/07/08 05:05:33;;;;;;;7.73;2.70;;;18.00;64.70;;;20.90;48.63;102715.66;5093645;28;20271;-65
2022/07/08 05:08:01;;;;;;;6.23;2.90;;;18.10;64.80;;;20.92;48.30;102721.66;5092758;28;20223;-65
2022/07/08 05:10:29;;;;;;;10.40;2.80;;;18.10;64.50;;;20.92;48.05;102716.28;5093055;28;20539;-64
2022/07/08 05:12:57;;;;;;;5.50;2.43;;;18.10;64.30;;;20.92;48.20;102721.66;5091510;28;20249;-64
2022/07/08 05:15:26;;;;;;;12.20;2.63;;;18.10;64.20;;;20.92;48.23;102718.97;5093166;28;20203;-64
2022/07/08 05:17:54;;;;;;;8.13;2.50;;;18.10;64.20;;;20.92;48.34;102724.34;5095045;28;20295;-64
2022/07/08 05:20:22;;;;;;;6.90;2.50;;;18.10;64.40;;;20.93;48.60;102728.69;5094577;28;20251;-64
2022/07/08 05:22:50;;;;;;;7.53;2.33;;;18.10;64.30;;;20.97;48.40;102724.59;5096691;28;20686;-65
2022/07/08 05:25:18;;;;;;;4.73;2.07;;;18.10;64.40;;;21.01;47.93;102733.91;5098517;28;20184;-64
2022/07/08 05:27:45;;;;;;;7.77;1.90;;;18.20;64.40;;;21.06;47.89;102736.84;5098725;28;20957;-65
2022/07/08 05:30:13;;;;;;;9.23;2.37;;;18.20;64.30;;;21.11;48.04;102739.75;5098418;28;20188;-65
2022/07/08 05:32:40;;;;;;;7.53;2.17;;;18.20;64.20;;;21.15;48.09;102734.84;5098269;28;20605;-64
2022/07/08 05:35:09;;;;;;;8.67;2.37;;;18.20;64.00;;;21.16;47.65;102740.00;5099538;28;20188;-65
2022/07/08 05:37:38;;;;;;;8.60;2.40;;;18.30;64.00;;;21.18;47.56;102737.16;5097900;28;20211;-64
2022/07/08 05:40:10;;;;;;;5.67;2.00;;;18.30;64.60;;;21.16;47.39;102740.00;5097006;28;20651;-65
2022/07/08 05:42:39;;;;;;;4.13;1.80;;;18.30;63.80;;;21.18;47.61;102740.63;5096174;28;20662;-65
2022/07/08 05:45:08;;;;;;;6.37;2.90;;;18.30;63.80;;;21.23;47.82;102742.72;5096763;28;20189;-67
2022/07/08 05:47:35;;;;;;;5.90;2.43;;;18.30;63.80;;;21.23;47.27;102740.88;5095832;28;20195;-65
2022/07/08 05:50:05;;;;;;;6.70;2.97;;;18.40;63.70;;;21.26;47.88;102740.50;5095969;28;20607;-65
2022/07/08 05:52:33;;;;;;;7.63;3.23;;;18.40;63.60;;;21.29;47.13;102739.28;5095973;28;20216;-64
2022/07/08 05:55:01;;;;;;;8.23;3.20;;;18.40;63.30;;;21.30;47.68;102746.31;5095857;28;20271;-65
2022/07/08 05:57:29;;;;;;;6.87;2.67;;;18.40;63.40;;;21.33;47.55;102746.72;5095545;28;20643;-65
2022/07/08 05:59:57;;;;;;;8.03;3.20;;;18.40;63.50;;;21.36;47.48;102741.00;5075788;28;20193;-64
2022/07/08 06:02:25;;;;;;;6.47;3.03;;;18.50;63.50;;;21.38;47.34;102741.63;5074461;28;20224;-65
2022/07/08 06:04:52;;;;;;;8.73;2.57;;;18.50;63.50;;;21.42;47.48;102742.88;5075530;28;20196;-64
2022/07/08 06:07:20;;;;;;;9.57;2.90;;;18.50;63.50;;;21.44;47.64;102748.06;5075920;28;20196;-63
2022/07/08 06:09:47;;;;;;;9.93;2.83;;;18.50;63.60;;;21.46;47.20;102743.31;5094658;28;20216;-65
2022/07/08 06:12:15;;;;;;;13.70;3.23;;;18.50;63.60;;;21.48;47.49;102741.25;5094945;28;20662;-65
2022/07/08 06:14:43;;;;;;;5.83;2.07;;;18.50;63.70;;;21.53;47.09;102738.81;5095429;28;20188;-65
2022/07/08 06:17:11;;;;;;;8.83;1.80;;;18.60;63.70;;;21.55;47.51;102742.13;5094344;28;20196;-64
2022/07/08 06:19:38;;;;;;;6.47;2.20;;;18.60;63.60;;;21.56;47.60;102744.59;5095086;28;20237;-66
2022/07/08 06:22:06;;;;;;;8.87;2.83;;;18.70;63.60;;;21.59;47.55;102754.94;5095016;28;20209;-64
2022/07/08 06:24:33;;;;;;;8.60;2.30;;;18.70;63.60;;;21.65;47.18;102764.06;5095655;28;20246;-64
2022/07/08 06:27:01;;;;;;;5.57;2.03;;;18.70;63.60;;;21.74;47.42;102762.84;5095860;28;20192;-64
2022/07/08 06:29:28;;;;;;;9.97;2.77;;;18.70;63.70;;;21.87;47.19;102770.19;5095271;28;20216;-64
2022/07/08 06:31:57;;;;;;;9.13;2.70;;;18.80;63.80;;;22.01;47.35;102769.22;5094904;28;20211;-64
2022/07/08 06:34:24;;;;;;;8.77;2.40;;;18.90;63.80;;;22.19;46.55;102761.44;5094879;28;20636;-64
2022/07/08 06:36:52;;;;;;;4.80;2.17;;;19.00;63.50;;;22.29;46.15;102761.88;5094905;28;20272;-63
2022/07/08 06:39:19;;;;;;;8.90;2.07;;;19.10;63.00;;;22.37;46.15;102768.94;5094232;28;20188;-64
2022/07/08 06:41:46;;;;;;;11.23;2.23;;;19.20;62.60;;;22.43;45.65;102763.56;5094816;28;20236;-65
2022/07/08 06:44:14;;;;;;;6.17;2.20;;;19.30;62.20;;;22.51;46.04;102770.59;5094508;28;20192;-66
2022/07/08 06:46:41;;;;;;;10.40;2.70;;;19.40;62.20;;;22.60;45.27;102780.97;5094536;28;20195;-63
2022/07/08 06:49:10;;;;;;;9.27;2.43;;;19.40;61.90;;;22.69;44.73;102779.75;5094541;28;20212;-65
2022/07/08 06:51:38;;;;;;;5.20;2.00;;;19.50;60.90;;;22.75;44.75;102795.03;5094380;28;20220;-65
2022/07/08 06:56:51;;;;;;;9.20;3.10;;;19.60;60.50;;;22.86;44.34;102786.41;5093612;28;20203;-64
2022/07/08 06:59:18;;;;;;;10.07;4.57;;;19.70;60.00;;;22.90;44.37;102793.00;5093453;28;20262;-64
2022/07/08 07:01:46;;;;;;;10.67;3.40;;;19.80;60.00;;;22.99;44.24;102795.50;5094123;28;20579;-63
2022/07/08 07:04:15;;;;;;;9.63;2.97;;;19.80;59.80;;;23.05;43.71;102800.03;5094993;28;20189;-65
2022/07/08 07:06:42;;;;;;;7.60;2.80;;;19.80;59.50;;;23.15;43.84;102800.47;5094697;28;20193;-64
2022/07/08 07:09:10;;;;;;;5.53;2.60;;;19.90;59.60;;;23.30;43.15;102801.06;5093897;28;20212;-64
2022/07/08 07:11:38;;;;;;;10.00;2.90;;;20.00;59.40;;;23.46;43.22;102798.00;5092901;28;20219;-65
2022/07/08 07:14:05;;;;;;;7.37;2.97;;;20.10;59.00;;;23.53;42.93;102798.81;5094417;28;20199;-64
2022/07/08 07:16:33;;;;;;;8.87;2.50;;;20.20;59.10;;;23.55;43.05;102802.09;5094646;28;20192;-66
2022/07/08 07:19:01;;;;;;;10.50;3.27;;;20.20;58.90;;;23.55;43.03;102810.19;5088736;27;20685;-66
2022/07/08 07:21:30;;;;;;;11.77;2.90;;;20.30;58.80;;;23.51;42.81;102811.59;5082982;28;20220;-65
2022/07/08 07:23:57;;;;;;;7.30;2.60;;;20.30;58.40;;;23.44;43.05;102810.78;5074978;28;20211;-65
2022/07/08 07:26:24;;;;;;;4.10;2.20;;;20.30;58.50;;;23.40;43.05;102809.56;5072761;28;20599;-65
2022/07/08 07:28:52;;;;;;;8.57;3.03;;;20.30;58.60;;;23.40;43.22;102818.47;5072538;28;20215;-62
2022/07/08 07:31:19;;;;;;;10.80;3.43;;;20.30;58.80;;;23.38;43.14;102817.00;5072350;28;20224;-65
2022/07/08 07:33:47;;;;;;;5.83;2.30;;;20.30;58.90;;;23.33;43.36;102809.53;5081233;28;20635;-64
2022/07/08 07:36:14;;;;;;;4.27;2.00;;;20.20;59.00;;;23.29;43.64;102808.31;5076414;28;20303;-66
2022/07/08 07:38:43;;;;;;;5.33;2.20;;;20.20;59.10;;;23.27;43.70;102798.81;5073759;28;20196;-64
2022/07/08 07:41:13;;;;;;;6.20;2.47;;;20.20;59.30;;;23.30;43.58;102809.13;5077348;28;20280;-64
2022/07/08 07:43:41;;;;;;;6.67;2.80;;;20.20;59.50;;;23.34;43.84;102813.88;5080705;28;20651;-64
2022/07/08 07:46:09;;;;;;;6.53;2.70;;;20.20;59.60;;;23.36;43.98;102809.16;5082272;28;20211;-65
2022/07/08 07:48:37;;;;;;;5.20;2.53;;;20.20;59.60;;;23.34;43.65;102810.38;5081575;28;20216;-66
2022/07/08 07:51:05;;;;;;;6.73;2.53;;;20.20;59.50;;;23.30;44.06;102809.94;5078694;28;20227;-65
2022/07/08 07:53:33;;;;;;;6.77;2.60;;;20.20;59.70;;;23.29;43.72;102818.22;5079417;28;20533;-65
2022/07/08 07:56:07;;;;;;;8.43;2.83;;;20.20;59.80;;;23.29;44.16;102820.91;5076651;28;20666;-65
2022/07/08 07:58:34;;;;;;;11.13;2.53;;;20.20;60.00;;;23.28;44.65;102830.00;5078440;28;20199;-65
2022/07/08 08:01:06;;;;;;;13.73;3.50;;;20.20;60.20;;;23.24;44.61;102826.91;5077271;28;20901;-65
2022/07/08 08:03:34;;;;;;;8.60;2.43;;;20.20;60.70;;;23.22;45.02;102828.16;5076482;28;20201;-64
2022/07/08 08:06:04;;;;;;;7.03;2.90;;;20.10;61.50;;;23.18;45.71;102840.34;5076921;28;20658;-65
2022/07/08 08:08:32;;;;;;;8.83;3.43;;;20.10;62.40;;;23.13;46.16;102842.84;5076816;28;20198;-65
2022/07/08 08:11:01;;;;;;;7.77;2.87;;;20.10;63.00;;;23.05;46.43;102845.72;5092611;28;20560;-64
2022/07/08 08:13:30;;;;;;;6.83;2.73;;;20.00;63.50;;;22.97;47.14;102830.63;5077255;28;20590;-64
2022/07/08 08:15:57;;;;;;;7.13;2.63;;;20.00;63.80;;;22.94;47.24;102836.38;5077612;28;20679;-63
2022/07/08 08:18:25;;;;;;;6.93;2.50;;;19.90;64.70;;;22.93;47.50;102832.06;5077548;28;20635;-65
2022/07/08 08:20:54;;;;;;;15.07;4.63;;;19.90;65.30;;;22.97;47.64;102835.16;5076463;28;20200;-63
2022/07/08 08:23:21;;;;;;;7.57;3.17;;;19.90;65.40;;;22.99;47.49;102828.53;5076216;28;20984;-64
2022/07/08 08:25:50;;;;;;;7.43;2.93;;;19.90;65.30;;;23.01;47.42;102836.41;5079180;28;20270;-65
2022/07/08 08:28:17;;;;;;;4.60;2.43;;;19.80;65.10;;;23.01;47.29;102839.09;5081202;28;20200;-65
2022/07/08 08:30:46;;;;;;;8.73;2.87;;;19.90;64.90;;;23.05;47.31;102832.28;5088376;28;20223;-64
2022/07/08 08:33:13;;;;;;;8.67;3.07;;;19.90;65.00;;;23.05;47.01;102843.03;5078065;28;20227;-66
2022/07/08 08:35:41;;;;;;;10.57;3.00;;;19.90;64.60;;;23.03;46.96;102834.34;5078176;28;20541;-65
2022/07/08 08:38:08;;;;;;;12.10;4.07;;;19.90;64.40;;;23.03;47.23;102835.19;5091873;28;20204;-65
2022/07/08 08:40:38;;;;;;;8.97;3.20;;;19.90;64.30;;;23.08;46.71;102829.19;5078640;28;20192;-66
2022/07/08 08:43:06;;;;;;;6.60;2.90;;;19.90;64.40;;;23.16;46.62;102829.81;5077096;28;20192;-65
2022/07/08 08:45:39;;;;;;;13.80;2.73;;;20.00;64.40;;;23.22;46.61;102833.53;5075562;28;20200;-65
2022/07/08 08:48:11;;;;;;;12.70;3.40;;;20.00;64.10;;;23.21;46.59;102831.88;5059384;28;20235;-64
2022/07/08 08:50:53;;;;;;;8.53;2.70;;;20.00;64.10;;;23.21;46.61;102837.25;5077994;28;20212;-65
2022/07/08 08:53:26;;;;;;;7.00;2.70;;;20.00;63.90;;;23.19;46.54;102834.78;5078440;28;20193;-66
2022/07/08 08:55:55;;;;;;;12.77;3.07;;;20.00;63.70;;;23.21;46.58;102838.06;5076181;28;20201;-65
2022/07/08 08:58:24;;;;;;;9.67;2.40;;;20.10;63.80;;;23.25;46.46;102830.44;5079280;28;20796;-63
2022/07/08 09:00:51;;;;;;;10.07;3.20;;;20.10;63.70;;;23.25;46.58;102835.81;5082768;28;20303;-65
2022/07/08 09:03:21;;;;;;;5.33;2.90;;;20.10;63.70;;;23.24;46.23;102836.84;5084576;28;20200;-65
2022/07/08 09:05:50;;;;;;;10.13;2.83;;;20.10;63.50;;;23.21;46.30;102835.38;5085504;28;20189;-64
2022/07/08 09:08:20;;;;;;;6.27;2.53;;;20.10;63.50;;;23.20;46.57;102830.22;5085296;28;20316;-65
2022/07/08 09:10:48;;;;;;;8.10;3.10;;;20.10;63.60;;;23.18;46.74;102829.59;5089940;28;20240;-64
2022/07/08 09:13:16;;;;;;;7.80;2.37;;;20.20;63.70;;;23.20;46.69;102831.03;5086373;28;20192;-65
2022/07/08 09:15:48;;;;;;;8.97;3.07;;;20.10;63.80;;;23.24;46.57;102831.47;5100409;28;20606;-65
2022/07/08 09:18:18;;;;;;;8.80;2.97;;;20.10;63.90;;;23.24;46.75;102837.66;5084069;28;20200;-65
2022/07/08 09:20:49;;;;;;;13.07;2.70;;;20.20;64.00;;;23.22;46.77;102838.91;5082631;28;20187;-66
2022/07/08 09:23:19;;;;;;;6.10;2.90;;;20.20;64.00;;;23.26;46.92;102846.34;5082234;28;20228;-66
2022/07/08 09:25:49;;;;;;;7.83;3.00;;;20.20;64.20;;;23.32;46.82;102842.03;5080807;28;20211;-66
2022/07/08 09:28:29;;;;;;;6.03;2.70;;;20.20;64.20;;;23.32;46.76;102844.72;5080375;28;20195;-65
2022/07/08 09:31:00;;;;;;;7.70;3.17;;;20.30;65.00;;;23.34;46.86;102842.63;5079653;28;20248;-66
2022/07/08 09:33:28;;;;;;;7.77;2.63;;;20.30;64.20;;;23.31;46.95;102846.56;5078804;28;20211;-65
2022/07/08 09:36:00;;;;;;;5.43;2.50;;;20.30;64.30;;;23.27;47.05;102847.19;5080243;28;20200;-64
2022/07/08 09:38:30;;;;;;;7.00;2.83;;;20.20;64.30;;;23.23;47.21;102845.91;5079560;28;21014;-66
2022/07/08 09:41:02;;;;;;;8.20;2.60;;;20.20;64.40;;;23.21;47.45;102839.94;5080229;28;20695;-65
2022/07/08 09:43:33;;;;;;;9.70;2.63;;;20.20;64.60;;;23.21;47.22;102850.69;5061682;28;20270;-65
2022/07/08 09:46:04;;;;;;;6.73;2.50;;;20.20;65.00;;;23.22;47.60;102849.66;5080078;28;20200;-65
2022/07/08 09:48:32;;;;;;;6.17;3.40;;;20.20;65.10;;;23.25;47.55;102849.25;5080076;28;20600;-64
2022/07/08 09:51:12;;;;;;;6.90;2.87;;;20.20;65.30;;;23.23;47.49;102840.53;5079333;28;20220;-64
2022/07/08 09:53:41;;;;;;;7.23;3.47;;;20.20;65.30;;;23.26;47.73;102837.47;5080755;28;20191;-63
2022/07/08 09:56:10;;;;;;;7.97;3.13;;;20.20;65.40;;;23.32;47.96;102844.72;5079466;28;20200;-66
2022/07/08 09:58:40;;;;;;;7.50;2.53;;;20.20;65.80;;;23.32;47.79;102839.34;5080596;28;20239;-63
2022/07/08 10:01:08;;;;;;;9.60;3.13;;;20.20;66.00;;;23.29;47.99;102834.38;5080389;28;20224;-65
2022/07/08 10:03:36;;;;;;;6.23;2.53;;;20.30;66.00;;;23.28;48.17;102832.69;5080144;28;20225;-64
2022/07/08 10:06:05;;;;;;;8.63;4.27;;;20.30;66.20;;;23.32;48.38;102839.34;5082113;28;20257;-63
2022/07/08 10:08:35;;;;;;;6.80;4.03;;;20.30;66.60;;;23.33;48.39;102831.06;5080729;28;20208;-66
2022/07/08 10:11:07;;;;;;;6.70;3.03;;;20.30;66.80;;;23.33;48.66;102825.66;5080582;28;20228;-67
2022/07/08 10:13:37;;;;;;;5.13;2.63;;;20.30;67.00;;;23.34;48.81;102826.50;5082035;28;20584;-63
2022/07/08 10:16:10;;;;;;;4.90;2.67;;;20.30;67.00;;;23.38;48.96;102830.47;5080795;28;20196;-64
2022/07/08 10:18:44;;;;;;;6.87;2.83;;;20.30;67.40;;;23.41;49.03;102830.06;5080323;28;20235;-63
2022/07/08 10:21:21;;;;;;;9.00;2.80;;;20.30;67.50;;;23.55;49.10;102834.38;5056176;28;20211;-64